CheckWX is a tool to help pilots better visualize weather data.  It is not intended as a substitute for an official pre-flight weather briefing.

21:11:42 UTC

KBTL TAF
W K Kellogg Airport
Battle Creek, Michigan, USA
KBTL 191740Z 1918/2018 16006KT P6SM SCT250 FM201500 20005KT P6SM BKN100

Sep-19@
18:00 UTC

Sep-19 @ 18:00 UTC

Sep-20@
15:00 UTC

Sep-20 @ 15:00 UTC

KBTL 191740Z 1918/2018 16006KT P6SM SCT250
Wind
  • 160° at 6 KTS
Cloud Levels
  • Scattered at 25,000' AGL

Sep-20@
15:00 UTC

Sep-20 @ 15:00 UTC

Sep-20@
18:00 UTC

Sep-20 @ 18:00 UTC

FM201500 20005KT P6SM BKN100

From

From Standard forecast or significant change

Wind
  • 200° at 5 KTS
Cloud Levels
  • Broken at 10,000' AGL